Time;durP1;ratioP1;P1;durP2;ratioP2;P2;SDS_P1;SDS_P2;PMS_P1;PMS_P2;Temp;Humidity;BMP_temperature;BMP_pressure;BME280_temperature;BME280_humidity;BME280_pressure;Samples;Min_cycle;Max_cycle;Signal;HPM_P1;HPM_P2
2022/03/09 00:01:13;;;;;;;66.13;30.95;;;;;;;-0.43;100.00;97575.81;5004525;28;20443;-81
2022/03/09 00:03:39;;;;;;;74.22;32.47;;;;;;;-0.37;100.00;97575.72;5019050;28;20492;-84
2022/03/09 00:06:05;;;;;;;70.47;29.38;;;;;;;-0.39;100.00;97575.72;5029195;28;20049;-83
2022/03/09 00:08:30;;;;;;;70.60;31.02;;;;;;;-0.39;100.00;97562.59;5038705;28;20036;-83
2022/03/09 00:10:56;;;;;;;68.90;32.58;;;;;;;-0.44;100.00;97564.44;5038913;28;20029;-82
2022/03/09 00:13:22;;;;;;;64.85;30.27;;;;;;;-0.37;100.00;97571.28;5038511;28;20016;-82
2022/03/09 00:15:47;;;;;;;71.90;31.98;;;;;;;-0.37;100.00;97563.41;5038919;28;20024;-82
2022/03/09 00:18:13;;;;;;;72.47;32.20;;;;;;;-0.39;100.00;97566.97;5039092;28;20473;-83
2022/03/09 00:20:38;;;;;;;66.88;30.50;;;;;;;-0.47;100.00;97558.38;5038835;28;20032;-83
2022/03/09 00:23:04;;;;;;;57.13;27.33;;;;;;;-0.40;100.00;97565.25;5055627;28;20028;-83
2022/03/09 00:25:30;;;;;;;59.55;28.65;;;;;;;-0.39;100.00;97566.97;5038614;28;20113;-84
2022/03/09 00:27:57;;;;;;;55.60;27.15;;;;;;;-0.52;100.00;97560.22;5025584;28;20064;-83
2022/03/09 00:30:23;;;;;;;61.17;27.35;;;;;;;-0.49;100.00;97565.44;5015737;28;20053;-83
2022/03/09 00:32:49;;;;;;;59.42;27.02;;;;;;;-0.61;100.00;97550.72;5015534;28;20476;-83
2022/03/09 00:35:14;;;;;;;61.75;25.73;;;;;;;-0.63;100.00;97560.41;5030539;28;20037;-83
2022/03/09 00:37:40;;;;;;;58.05;25.80;;;;;;;-0.73;100.00;97561.47;5038412;28;20021;-84
2022/03/09 00:40:07;;;;;;;58.55;25.05;;;;;;;-0.56;100.00;97556.78;5038415;28;20039;-82
2022/03/09 00:42:39;;;;;;;55.10;25.25;;;;;;;-0.56;100.00;97559.41;5038694;28;20032;-83
2022/03/09 00:45:06;;;;;;;51.33;25.77;;;;;;;-0.57;100.00;97553.28;5020157;28;20480;-83
2022/03/09 00:47:32;;;;;;;50.60;23.80;;;;;;;-0.54;100.00;97539.22;5018138;28;20090;-83
2022/03/09 00:49:58;;;;;;;53.63;25.23;;;;;;;-0.49;100.00;97561.00;5021180;28;20493;-83
2022/03/09 00:52:24;;;;;;;58.50;26.48;;;;;;;-0.62;100.00;97549.91;5022714;28;20029;-84
2022/03/09 00:54:50;;;;;;;55.58;26.13;;;;;;;-0.56;100.00;97560.28;5039354;28;20032;-83
2022/03/09 00:57:16;;;;;;;59.83;29.20;;;;;;;-0.57;100.00;97548.03;5022577;28;20035;-84
2022/03/09 00:59:41;;;;;;;58.55;27.50;;;;;;;-0.63;100.00;97553.41;5038593;28;20029;-82
2022/03/09 01:02:07;;;;;;;60.63;28.35;;;;;;;-0.57;100.00;97555.91;5022457;28;20484;-84
2022/03/09 01:04:36;;;;;;;54.72;25.05;;;;;;;-0.74;100.00;97547.47;5038450;28;20119;-84
2022/03/09 01:07:03;;;;;;;50.90;24.42;;;;;;;-0.67;100.00;97535.09;5022655;28;20138;-84
2022/03/09 01:09:29;;;;;;;60.50;24.55;;;;;;;-0.67;100.00;97541.22;5022122;28;20032;-83
2022/03/09 01:11:55;;;;;;;54.08;26.23;;;;;;;-0.66;100.00;97539.47;5021793;28;20033;-82
2022/03/09 01:14:20;;;;;;;54.70;25.02;;;;;;;-0.65;100.00;97549.94;5022019;28;20091;-81
2022/03/09 01:16:46;;;;;;;52.97;25.17;;;;;;;-0.59;100.00;97541.97;5022094;28;20024;-82
2022/03/09 01:19:12;;;;;;;56.90;26.50;;;;;;;-0.60;100.00;97536.72;5021866;28;20029;-83
2022/03/09 01:21:37;;;;;;;58.58;27.27;;;;;;;-0.57;100.00;97541.91;5036230;28;20123;-83
2022/03/09 01:24:03;;;;;;;63.42;28.92;;;;;;;-0.62;100.00;97539.41;5041618;28;20024;-81
2022/03/09 01:26:29;;;;;;;61.83;26.55;;;;;;;-0.65;100.00;97539.44;5041329;28;20020;-83
2022/03/09 01:32:16;;;;;;;60.25;25.70;;;;;;;-0.78;100.00;97532.69;5036115;28;20044;-82
2022/03/09 01:34:42;;;;;;;56.45;26.48;;;;;;;-0.78;100.00;97535.31;5001315;28;20033;-82
2022/03/09 01:37:08;;;;;;;56.30;26.83;;;;;;;-0.81;100.00;97535.34;5018148;28;20017;-84
2022/03/09 01:39:33;;;;;;;54.55;25.67;;;;;;;-0.79;100.00;97530.94;5009691;28;20098;-83
2022/03/09 01:41:59;;;;;;;61.70;27.67;;;;;;;-0.86;100.00;97536.34;5057747;28;20476;-83
2022/03/09 01:44:25;;;;;;;68.13;28.55;;;;;;;-0.84;100.00;97543.28;5041586;28;20024;-82
2022/03/09 01:46:52;;;;;;;66.50;29.10;;;;;;;-0.80;100.00;97544.94;5040970;28;20024;-84
2022/03/09 01:49:19;;;;;;;61.83;26.95;;;;;;;-0.77;100.00;97551.94;5041635;28;20055;-83
2022/03/09 01:51:47;;;;;;;60.83;27.50;;;;;;;-0.77;100.00;97531.75;5041495;28;20203;-83
2022/03/09 01:54:14;;;;;;;58.35;27.10;;;;;;;-0.71;100.00;97538.69;5041392;28;20046;-82
2022/03/09 01:56:41;;;;;;;65.65;27.90;;;;;;;-0.70;100.00;97528.13;5040889;28;20039;-83
2022/03/09 01:59:08;;;;;;;69.80;28.85;;;;;;;-0.66;100.00;97537.72;5041090;28;20025;-83
2022/03/09 02:01:34;;;;;;;65.60;29.48;;;;;;;-0.72;100.00;97532.56;5023447;28;20036;-83
2022/03/09 02:04:02;;;;;;;63.85;29.00;;;;;;;-0.65;100.00;97544.69;5041024;28;20115;-83
2022/03/09 02:06:28;;;;;;;67.00;29.23;;;;;;;-0.62;100.00;97542.03;5040506;28;20052;-82
2022/03/09 02:11:38;;;;;;;64.32;28.55;;;;;;;-0.74;100.00;97509.88;5060323;28;20044;-83
2022/03/09 02:14:04;;;;;;;70.18;28.60;;;;;;;-0.62;100.00;97528.88;5040444;28;20028;-82
2022/03/09 02:16:30;;;;;;;60.58;27.83;;;;;;;-0.69;100.00;97522.00;5056630;28;20028;-82
2022/03/09 02:18:56;;;;;;;63.42;29.73;;;;;;;-0.82;100.00;97520.50;5025743;28;20123;-83
2022/03/09 02:21:23;;;;;;;64.05;28.35;;;;;;;-0.77;100.00;97523.03;5021346;28;20036;-83
2022/03/09 02:23:50;;;;;;;64.13;27.52;;;;;;;-0.84;100.00;97522.28;5037164;28;20033;-83
2022/03/09 02:26:16;;;;;;;57.17;26.42;;;;;;;-0.76;100.00;97528.25;5045605;28;20047;-82
2022/03/09 02:29:00;;;;;;;62.35;27.33;;;;;;;-0.87;100.00;97532.84;5047808;28;20025;-82
2022/03/09 02:31:25;;;;;;;66.70;28.25;;;;;;;-0.95;100.00;97531.25;5020370;28;20035;-83
2022/03/09 02:33:51;;;;;;;63.97;29.60;;;;;;;-1.02;100.00;97532.22;5020086;28;20029;-82
2022/03/09 02:36:20;;;;;;;64.32;27.88;;;;;;;-1.03;100.00;97535.75;5020481;28;20472;-84
2022/03/09 02:38:45;;;;;;;62.72;28.77;;;;;;;-1.10;100.00;97529.72;5041591;28;20033;-82
2022/03/09 02:41:11;;;;;;;65.63;29.35;;;;;;;-0.98;100.00;97537.38;5040455;28;20515;-84
2022/03/09 02:43:37;;;;;;;71.63;29.55;;;;;;;-0.93;100.00;97532.06;5056559;28;20036;-83
2022/03/09 02:46:02;;;;;;;60.88;27.35;;;;;;;-0.90;100.00;97527.66;5040112;28;20028;-84
2022/03/09 02:48:28;;;;;;;58.65;26.33;;;;;;;-1.10;100.00;97521.84;5024912;28;20064;-83
2022/03/09 02:50:54;;;;;;;58.55;26.00;;;;;;;-1.11;100.00;97523.59;5038386;28;20078;-81
2022/03/09 02:53:19;;;;;;;57.40;25.63;;;;;;;-1.03;100.00;97526.13;5038834;28;20040;-83
2022/03/09 02:55:45;;;;;;;59.90;25.15;;;;;;;-0.98;100.00;97542.63;5039851;28;20031;-82
2022/03/09 02:58:11;;;;;;;56.00;25.77;;;;;;;-1.11;100.00;97528.00;5027481;28;20102;-83
2022/03/09 03:00:36;;;;;;;56.47;24.83;;;;;;;-1.19;100.00;97529.88;5020597;28;20057;-83
2022/03/09 03:03:02;;;;;;;57.97;26.05;;;;;;;-1.19;100.00;97530.75;5020471;28;20028;-83
2022/03/09 03:05:27;;;;;;;65.50;26.83;;;;;;;-1.42;100.00;97532.00;5019762;28;20072;-83
2022/03/09 03:07:53;;;;;;;56.65;24.75;;;;;;;-1.41;100.00;97533.72;5020273;28;20031;-83
2022/03/09 03:10:19;;;;;;;60.88;25.20;;;;;;;-1.32;100.00;97544.94;5020314;28;20112;-82
2022/03/09 03:12:58;;;;;;;53.97;25.15;;;;;;;-1.38;100.00;97544.16;5047301;28;20068;-83
2022/03/09 03:15:23;;;;;;;59.05;25.77;;;;;;;-1.48;100.00;97538.22;5039704;28;20032;-83
2022/03/09 03:17:49;;;;;;;55.38;25.98;;;;;;;-1.46;100.00;97557.41;5036359;28;20032;-83
2022/03/09 03:20:14;;;;;;;52.42;25.33;;;;;;;-1.66;100.00;97539.31;5029030;28;20036;-83
2022/03/09 03:22:40;;;;;;;59.15;25.00;;;;;;;-1.70;100.00;97540.28;5039864;28;20039;-83
2022/03/09 03:25:06;;;;;;;59.38;24.50;;;;;;;-1.88;100.00;97522.19;5034158;28;20041;-83
2022/03/09 03:27:31;;;;;;;50.47;24.55;;;;;;;-1.84;100.00;97542.22;5052992;28;20032;-84
2022/03/09 03:29:57;;;;;;;51.03;22.83;;;;;;;-1.88;100.00;97543.16;5039267;28;20476;-83
2022/03/09 03:32:23;;;;;;;53.25;23.98;;;;;;;-2.02;100.00;97537.22;5032324;28;20032;-83
2022/03/09 03:34:48;;;;;;;52.75;23.38;;;;;;;-2.00;100.00;97545.91;5038904;28;20522;-84
2022/03/09 03:37:14;;;;;;;51.80;23.40;;;;;;;-2.13;100.00;97546.97;5030430;28;20086;-83
2022/03/09 03:39:39;;;;;;;52.83;24.60;;;;;;;-2.13;100.00;97549.59;5022309;28;20468;-83
2022/03/09 03:42:06;;;;;;;51.10;23.92;;;;;;;-2.22;100.00;97553.19;5034343;28;20033;-83
2022/03/09 03:44:32;;;;;;;58.08;24.08;;;;;;;-2.17;100.00;97547.88;5035524;28;20039;-83
2022/03/09 03:46:58;;;;;;;61.75;25.17;;;;;;;-2.28;100.00;97541.91;5039039;28;20119;-83
2022/03/09 03:49:24;;;;;;;52.05;22.95;;;;;;;-2.25;100.00;97547.13;5028337;28;20024;-84
2022/03/09 03:51:49;;;;;;;56.05;23.48;;;;;;;-2.18;100.00;97551.38;5042979;28;20483;-84
2022/03/09 03:54:16;;;;;;;52.25;22.48;;;;;;;-2.20;100.00;97564.50;5030273;28;20075;-83
2022/03/09 03:56:41;;;;;;;48.60;23.48;;;;;;;-2.27;100.00;97549.75;5036228;28;20051;-84
2022/03/09 03:59:07;;;;;;;55.55;24.10;;;;;;;-2.27;100.00;97559.34;5039001;28;20448;-84
2022/03/09 04:01:32;;;;;;;50.42;23.73;;;;;;;-2.32;100.00;97553.31;5023983;28;20386;-82
2022/03/09 04:03:58;;;;;;;61.47;25.42;;;;;;;-2.32;100.00;97555.94;5024940;28;20024;-83
2022/03/09 04:06:24;;;;;;;51.22;23.08;;;;;;;-2.46;100.00;97532.50;5047441;28;20120;-83
2022/03/09 04:08:49;;;;;;;59.13;25.95;;;;;;;-2.33;100.00;97546.31;5019785;28;20025;-83
2022/03/09 04:11:15;;;;;;;57.72;26.50;;;;;;;-2.33;100.00;97536.72;5020186;28;20035;-81
2022/03/09 04:13:44;;;;;;;59.05;26.77;;;;;;;-2.45;100.00;97547.34;5031073;28;20039;-84
2022/03/09 04:16:11;;;;;;;60.25;27.67;;;;;;;-2.59;100.00;97533.53;5043455;28;20056;-83
2022/03/09 04:18:39;;;;;;;56.08;25.65;;;;;;;-2.60;100.00;97536.16;5034716;28;20036;-82
2022/03/09 04:21:05;;;;;;;71.05;29.75;;;;;;;-2.77;100.00;97515.41;5037124;28;20480;-83
2022/03/09 04:23:30;;;;;;;63.78;29.65;;;;;;;-2.57;100.00;97557.06;5027097;28;20035;-84
2022/03/09 04:25:56;;;;;;;77.57;31.48;;;;;;;-2.80;100.00;97520.69;5034764;28;20029;-83
2022/03/09 04:28:22;;;;;;;76.28;32.83;;;;;;;-2.75;100.00;97540.69;5036576;28;20085;-84
2022/03/09 04:30:47;;;;;;;80.93;32.75;;;;;;;-2.75;100.00;97542.44;5041304;28;20064;-82
2022/03/09 04:33:13;;;;;;;69.75;30.42;;;;;;;-2.71;100.00;97558.97;5032105;28;20032;-83
2022/03/09 04:35:38;;;;;;;76.32;31.70;;;;;;;-2.78;100.00;97545.06;5031436;28;20028;-84
2022/03/09 04:38:04;;;;;;;75.68;31.58;;;;;;;-2.72;100.00;97567.69;5052970;28;20039;-73
2022/03/09 04:40:30;;;;;;;98.22;36.15;;;;;;;-2.82;100.00;97553.81;5058130;28;20103;-84
2022/03/09 04:42:55;;;;;;;82.97;36.50;;;;;;;-2.81;100.00;97550.34;5036975;28;20031;-84
2022/03/09 04:45:21;;;;;;;92.80;35.13;;;;;;;-2.80;100.00;97550.31;5045611;28;20059;-85
2022/03/09 04:47:47;;;;;;;107.72;42.03;;;;;;;-2.84;100.00;97542.53;5043857;28;20029;-84
2022/03/09 04:50:13;;;;;;;111.68;43.30;;;;;;;-2.74;100.00;97567.72;5060127;28;20028;-84
2022/03/09 04:59:26;;;;;;;93.57;37.92;;;;;;;-2.82;100.00;97540.75;5080229;28;20566;-82
2022/03/09 05:01:54;;;;;;;74.43;30.25;;;;;;;-2.87;100.00;97534.69;5046092;28;20062;-84
2022/03/09 05:04:19;;;;;;;59.58;27.77;;;;;;;-2.83;100.00;97531.19;5042203;28;20028;-85
2022/03/09 05:06:45;;;;;;;81.07;31.60;;;;;;;-2.94;100.00;97536.50;5040637;28;20048;-85
2022/03/09 05:09:11;;;;;;;70.90;29.73;;;;;;;-2.75;100.00;97560.75;5022607;28;20404;-84
2022/03/09 05:11:38;;;;;;;77.88;31.10;;;;;;;-2.81;100.00;97529.41;5022789;28;20029;-85
2022/03/09 05:14:04;;;;;;;68.82;29.33;;;;;;;-2.67;100.00;97552.81;5029655;28;20024;-85
2022/03/09 05:16:30;;;;;;;66.78;30.10;;;;;;;-2.59;100.00;97541.41;5022315;28;20029;-85
2022/03/09 05:18:55;;;;;;;62.83;27.70;;;;;;;-2.45;100.00;97554.31;5038071;28;20032;-84
2022/03/09 05:21:21;;;;;;;67.55;29.90;;;;;;;-2.56;100.00;97536.13;5041415;28;20039;-84
2022/03/09 05:23:47;;;;;;;65.57;29.38;;;;;;;-2.48;100.00;97555.22;5030952;28;20033;-84
2022/03/09 05:26:12;;;;;;;71.60;28.90;;;;;;;-2.36;100.00;97564.69;5048425;28;20405;-84
2022/03/09 05:28:38;;;;;;;62.30;27.50;;;;;;;-2.25;100.00;97568.94;5022015;28;20037;-84
2022/03/09 05:31:07;;;;;;;66.63;26.27;;;;;;;-2.06;100.00;97577.44;5021843;28;20083;-82
2022/03/09 05:33:33;;;;;;;62.83;26.98;;;;;;;-2.06;100.00;97566.09;5022381;28;20036;-83
2022/03/09 05:35:59;;;;;;;62.30;27.90;;;;;;;-1.95;100.00;97575.56;5021004;28;20016;-83
2022/03/09 05:38:24;;;;;;;69.47;30.08;;;;;;;-1.95;100.00;97572.06;5028764;28;20024;-85
2022/03/09 05:40:50;;;;;;;63.05;28.08;;;;;;;-1.92;100.00;97579.88;5041277;28;20029;-84
2022/03/09 05:43:15;;;;;;;65.13;28.60;;;;;;;-1.84;100.00;97578.91;5056846;28;20028;-82
2022/03/09 05:45:41;;;;;;;68.65;29.00;;;;;;;-1.57;100.00;97584.69;5038420;28;20543;-84
2022/03/09 05:48:06;;;;;;;60.67;26.42;;;;;;;-1.58;100.00;97582.94;5030726;28;20032;-84
2022/03/09 05:50:32;;;;;;;62.45;26.23;;;;;;;-1.38;100.00;97588.75;5030604;28;20032;-84
2022/03/09 05:52:58;;;;;;;74.03;28.17;;;;;;;-1.30;100.00;97579.03;5024831;28;20024;-86
2022/03/09 05:55:23;;;;;;;59.90;26.55;;;;;;;-1.01;100.00;97582.06;5036541;28;20071;-84
2022/03/09 05:57:49;;;;;;;67.45;27.90;;;;;;;-0.83;100.00;97580.91;5034975;28;20032;-85
2022/03/09 06:00:15;;;;;;;64.40;28.23;;;;;;;-0.74;100.00;97580.75;5047695;28;20032;-84
2022/03/09 06:02:41;;;;;;;69.80;29.25;;;;;;;-0.45;99.71;97578.47;5034778;28;20025;-83
2022/03/09 06:05:07;;;;;;;65.70;27.90;;;;;;;-0.24;97.75;97583.31;5021138;28;20095;-83
2022/03/09 06:07:33;;;;;;;75.15;30.95;;;;;;;-0.05;96.55;97581.19;5013085;28;20033;-84
2022/03/09 06:09:59;;;;;;;69.97;30.90;;;;;;;0.07;95.71;97588.84;5016333;28;20021;-82
2022/03/09 06:12:25;;;;;;;76.72;31.17;;;;;;;0.07;94.53;97594.09;5032251;28;20035;-83
2022/03/09 06:14:50;;;;;;;100.15;44.33;;;;;;;-0.14;95.17;97584.88;5004586;28;20025;-82
2022/03/09 06:17:16;;;;;;;68.47;31.45;;;;;;;0.13;95.68;97582.59;5030961;28;20420;-81
2022/03/09 06:19:42;;;;;;;69.38;32.25;;;;;;;1.15;90.03;97574.13;5012927;28;20025;-83
2022/03/09 06:22:07;;;;;;;65.53;30.10;;;;;;;2.03;84.66;97590.28;4998943;28;20460;-83
2022/03/09 06:24:33;;;;;;;76.18;31.33;;;;;;;2.91;78.45;97603.50;5005953;28;20029;-82
2022/03/09 06:26:59;;;;;;;72.13;33.25;;;;;;;3.86;72.96;97586.25;5015207;28;20456;-83
2022/03/09 06:29:25;;;;;;;172.63;71.25;;;;;;;4.70;67.88;97579.63;5020014;28;20497;-84
2022/03/09 06:31:51;;;;;;;107.53;49.70;;;;;;;4.77;65.62;97575.78;5014958;28;20124;-85
2022/03/09 06:34:17;;;;;;;90.15;42.58;;;;;;;4.32;69.14;97589.84;5014786;28;20459;-84
2022/03/09 06:36:44;;;;;;;75.03;38.95;;;;;;;3.55;69.68;97592.59;5011432;28;20040;-84
2022/03/09 06:39:14;;;;;;;84.72;41.25;;;;;;;3.10;76.01;97602.91;5014741;28;20040;-84
2022/03/09 06:41:40;;;;;;;88.93;43.30;;;;;;;3.05;73.54;97604.78;5011489;28;20029;-83
2022/03/09 06:44:06;;;;;;;83.30;39.63;;;;;;;2.73;73.50;97597.88;5012078;28;20084;-82
2022/03/09 06:46:32;;;;;;;83.07;41.50;;;;;;;1.56;77.70;97612.63;5001228;28;20064;-82
2022/03/09 06:48:57;;;;;;;91.07;40.10;;;;;;;1.47;82.67;97613.72;5021529;28;20037;-83
2022/03/09 06:51:23;;;;;;;70.50;32.08;;;;;;;1.40;81.38;97595.47;5004827;28;20548;-83
2022/03/09 06:53:48;;;;;;;67.60;28.40;;;;;;;1.23;85.41;97610.84;5010216;28;20409;-82
2022/03/09 06:56:16;;;;;;;68.45;31.30;;;;;;;0.92;85.22;97613.31;5000311;28;20029;-82
2022/03/09 06:58:41;;;;;;;61.00;28.75;;;;;;;0.70;86.82;97597.16;4999557;28;20037;-81
2022/03/09 07:01:07;;;;;;;78.22;32.72;;;;;;;1.31;85.59;97607.09;5007461;28;20586;-83
2022/03/09 07:03:33;;;;;;;69.90;30.77;;;;;;;1.23;84.32;97609.03;5009180;28;20032;-83
2022/03/09 07:05:58;;;;;;;68.78;29.92;;;;;;;1.78;82.31;97597.13;5022788;28;20080;-83
2022/03/09 07:08:24;;;;;;;63.08;27.65;;;;;;;2.56;75.85;97599.28;5036606;28;20123;-82
2022/03/09 07:10:50;;;;;;;59.80;28.65;;;;;;;3.01;73.83;97597.03;5041738;28;20130;-83
2022/03/09 07:13:15;;;;;;;60.50;29.13;;;;;;;3.89;69.80;97596.72;5028636;28;20041;-83
2022/03/09 07:15:41;;;;;;;61.95;28.13;;;;;;;4.08;67.78;97581.94;5036446;28;20098;-85
2022/03/09 07:18:06;;;;;;;60.47;29.73;;;;;;;4.13;66.25;97593.22;5055736;28;20036;-83
2022/03/09 07:20:32;;;;;;;70.95;31.00;;;;;;;3.63;67.48;97581.78;5038547;28;20508;-84
2022/03/09 07:22:58;;;;;;;74.13;33.97;;;;;;;4.71;64.93;97573.38;5034559;28;20036;-83
2022/03/09 07:25:23;;;;;;;62.58;29.50;;;;;;;6.27;57.89;97556.25;5039636;28;20462;-84
2022/03/09 07:27:49;;;;;;;55.22;27.45;;;;;;;7.12;54.98;97555.78;5039466;28;20060;-85
2022/03/09 07:30:17;;;;;;;54.95;27.90;;;;;;;6.26;56.79;97543.91;5040140;28;20055;-83
2022/03/09 07:32:43;;;;;;;58.40;28.30;;;;;;;5.90;57.59;97572.94;5030714;28;20051;-83
2022/03/09 07:35:13;;;;;;;59.70;26.90;;;;;;;5.30;58.03;97531.25;5030725;28;20033;-84
2022/03/09 07:37:38;;;;;;;59.00;27.13;;;;;;;5.89;57.53;97581.81;5037412;28;20036;-84
2022/03/09 07:40:08;;;;;;;54.80;28.10;;;;;;;5.79;55.79;97543.28;5055740;28;20033;-84
2022/03/09 07:42:34;;;;;;;63.08;29.10;;;;;;;5.31;57.43;97570.97;5034223;28;20123;-83
2022/03/09 07:45:06;;;;;;;59.10;27.98;;;;;;;4.97;58.88;97541.44;5027024;28;20067;-82
2022/03/09 07:47:32;;;;;;;;;;;;;;;5.37;59.79;97569.84;5038992;28;20033;-83
2022/03/09 07:49:58;;;;;;;55.17;26.38;;;;;;;5.70;58.19;97549.00;5023669;28;19917;-82
2022/03/09 07:52:23;;;;;;;56.08;27.17;;;;;;;6.27;55.87;97537.66;5020057;28;20508;-82
2022/03/09 07:54:49;;;;;;;53.15;26.60;;;;;;;5.37;58.62;97530.06;5037326;28;20514;-84
2022/03/09 07:57:15;;;;;;;65.00;31.88;;;;;;;5.87;56.86;97526.16;5035564;28;20185;-83
2022/03/09 07:59:40;;;;;;;54.78;26.17;;;;;;;6.55;55.37;97519.53;5033456;28;20397;-83
2022/03/09 08:02:07;;;;;;;56.45;27.13;;;;;;;4.65;58.52;97532.09;5018605;28;20119;-84
2022/03/09 08:04:33;;;;;;;51.25;24.02;;;;;;;4.17;59.26;97561.28;5034857;28;20373;-83
2022/03/09 08:06:59;;;;;;;52.85;24.25;;;;;;;5.41;59.00;97572.28;5035077;28;20051;-82
2022/03/09 08:09:25;;;;;;;63.75;26.90;;;;;;;5.56;58.24;97554.03;5039144;28;20349;-83
2022/03/09 08:11:50;;;;;;;84.80;39.60;;;;;;;5.15;59.15;97542.47;5024286;28;20064;-83
2022/03/09 08:14:16;;;;;;;82.82;39.78;;;;;;;4.30;60.84;97553.78;5040467;28;20055;-82
2022/03/09 08:16:42;;;;;;;69.80;33.45;;;;;;;5.20;60.10;97532.56;5018002;28;20025;-83
2022/03/09 08:19:07;;;;;;;60.25;27.38;;;;;;;6.06;56.87;97541.28;5030437;28;20079;-83
2022/03/09 08:21:33;;;;;;;55.08;27.45;;;;;;;6.67;55.60;97542.03;5027106;28;20103;-83
2022/03/09 08:23:59;;;;;;;51.97;25.80;;;;;;;7.95;51.57;97514.31;5024272;28;20013;-83
2022/03/09 08:26:24;;;;;;;59.22;29.45;;;;;;;8.41;48.89;97501.25;5054849;28;20017;-83
2022/03/09 08:28:50;;;;;;;57.35;28.40;;;;;;;9.05;47.55;97488.72;5023576;28;20020;-82
2022/03/09 08:31:17;;;;;;;59.15;28.42;;;;;;;8.57;47.36;97504.81;5032747;28;20381;-82
2022/03/09 08:33:42;;;;;;;51.08;27.05;;;;;;;9.32;47.25;97480.94;5038623;28;20606;-82
2022/03/09 08:36:08;;;;;;;55.17;29.55;;;;;;;10.50;45.41;97472.91;5038426;28;20111;-84
2022/03/09 08:38:34;;;;;;;51.92;27.35;;;;;;;10.22;46.07;97498.66;5029794;28;20029;-84
2022/03/09 08:41:00;;;;;;;61.22;29.60;;;;;;;10.39;44.19;97491.44;5041299;28;20037;-83
2022/03/09 08:43:25;;;;;;;55.58;29.58;;;;;;;9.77;45.63;97488.06;5018218;28;20029;-83
2022/03/09 08:45:51;;;;;;;60.67;30.17;;;;;;;11.30;44.73;97505.16;5019485;28;20567;-83
2022/03/09 08:48:17;;;;;;;59.22;28.98;;;;;;;10.93;42.29;97465.66;5020921;28;20107;-84
2022/03/09 08:50:46;;;;;;;59.33;33.25;;;;;;;11.64;41.01;97463.59;5049940;28;20071;-83
2022/03/09 08:53:12;;;;;;;66.63;35.95;;;;;;;12.57;40.37;97439.22;5041523;28;20020;-84
2022/03/09 08:55:41;;;;;;;53.40;30.55;;;;;;;11.75;39.99;97455.72;5040803;28;20109;-84
2022/03/09 08:58:07;;;;;;;57.20;23.70;;;;;;;12.68;39.59;97455.38;5033850;28;20021;-85
2022/03/09 09:00:32;;;;;;;41.03;22.60;;;;;;;12.59;38.31;97422.03;5052441;28;20029;-84
2022/03/09 09:02:58;;;;;;;36.33;20.83;;;;;;;12.12;37.51;97441.47;5021353;28;20063;-84
2022/03/09 09:05:24;;;;;;;41.17;21.48;;;;;;;10.21;40.96;97464.88;5021004;28;20124;-83
2022/03/09 09:07:50;;;;;;;47.63;23.23;;;;;;;10.78;40.69;97452.31;5029455;28;20060;-83
2022/03/09 09:10:16;;;;;;;35.40;18.40;;;;;;;11.68;35.96;97438.31;5025043;28;20493;-84
2022/03/09 09:12:41;;;;;;;32.78;19.00;;;;;;;11.97;36.97;97444.41;5031965;28;20032;-84
2022/03/09 09:15:08;;;;;;;37.83;20.65;;;;;;;11.77;36.64;97437.72;5025430;28;20075;-84
2022/03/09 09:17:34;;;;;;;42.72;21.20;;;;;;;12.94;36.93;97449.00;5004276;28;20025;-86
2022/03/09 09:20:00;;;;;;;38.40;20.58;;;;;;;14.07;34.87;97428.75;5020870;28;20036;-84
2022/03/09 09:22:26;;;;;;;34.90;18.48;;;;;;;14.21;32.99;97428.56;5036856;28;20033;-84
2022/03/09 09:24:51;;;;;;;29.58;19.17;;;;;;;15.42;31.36;97413.25;5036475;28;20104;-84
2022/03/09 09:27:17;;;;;;;25.92;16.20;;;;;;;14.30;32.23;97410.81;5041599;28;20036;-84
2022/03/09 09:29:43;;;;;;;29.10;17.65;;;;;;;13.85;33.38;97399.97;5033693;28;20032;-84
2022/03/09 09:32:09;;;;;;;34.67;17.60;;;;;;;13.67;33.49;97413.97;5026765;28;20032;-86
2022/03/09 09:34:34;;;;;;;26.60;15.13;;;;;;;11.97;34.79;97409.56;5030276;28;20485;-83
2022/03/09 09:37:02;;;;;;;27.33;16.50;;;;;;;11.18;34.15;97413.13;5029335;28;20028;-85
2022/03/09 09:39:27;;;;;;;34.47;19.55;;;;;;;10.38;37.59;97430.88;5034532;28;20470;-84
2022/03/09 09:41:55;;;;;;;35.28;16.70;;;;;;;10.73;36.89;97432.19;5023952;28;20060;-85
2022/03/09 09:44:23;;;;;;;25.35;15.10;;;;;;;10.74;36.01;97436.56;5036538;28;20043;-85
2022/03/09 09:46:49;;;;;;;26.63;15.23;;;;;;;10.83;37.76;97449.34;5040388;28;20404;-86
2022/03/09 09:49:15;;;;;;;31.55;15.32;;;;;;;12.54;34.49;97442.13;5038307;28;20021;-86
2022/03/09 09:51:43;;;;;;;24.83;15.05;;;;;;;13.69;31.66;97425.50;5030697;28;20028;-85
2022/03/09 09:54:10;;;;;;;22.67;14.30;;;;;;;14.48;30.14;97412.94;5058208;28;20484;-85
2022/03/09 09:56:40;;;;;;;25.08;15.43;;;;;;;15.17;28.48;97400.09;5041681;28;20115;-83
2022/03/09 09:59:06;;;;;;;26.45;14.40;;;;;;;16.01;27.99;97400.13;5038872;28;20052;-85
2022/03/09 10:01:32;;;;;;;26.60;15.77;;;;;;;17.08;27.36;97392.38;5036884;28;20025;-84
2022/03/09 10:03:58;;;;;;;36.55;17.73;;;;;;;17.44;27.24;97399.00;5047562;28;20031;-84
2022/03/09 10:06:23;;;;;;;22.13;14.35;;;;;;;15.05;28.14;97404.66;5026394;28;20045;-85
2022/03/09 10:09:06;;;;;;;24.20;14.38;;;;;;;12.82;33.68;97425.75;5043849;28;20024;-84
2022/03/09 10:11:47;;;;;;;25.60;13.98;;;;;;;11.89;31.77;97418.13;5025522;28;20037;-84
2022/03/09 10:14:14;;;;;;;23.13;14.55;;;;;;;11.12;33.58;97410.84;5071107;28;20012;-84
2022/03/09 10:16:59;;;;;;;25.98;14.77;;;;;;;11.30;34.75;97423.00;5049301;28;20081;-84
2022/03/09 10:19:35;;;;;;;32.10;15.68;;;;;;;13.15;33.55;97415.22;5040211;28;20040;-84
2022/03/09 10:22:46;;;;;;;25.10;13.57;;;;;;;15.11;30.97;97414.06;5028213;28;20092;-84
2022/03/09 10:25:12;;;;;;;22.75;14.77;;;;;;;16.50;28.37;97394.00;4943108;28;20030;-83
2022/03/09 10:27:47;;;;;;;23.58;14.00;;;;;;;17.15;27.30;97389.97;4964274;28;20041;-84
2022/03/09 10:30:24;;;;;;;23.67;15.25;;;;;;;16.92;27.37;97385.81;4993654;28;20416;-83
2022/03/09 10:32:52;;;;;;;30.00;17.30;;;;;;;17.93;26.11;97367.41;5022873;28;20111;-85
2022/03/09 10:35:45;;;;;;;24.27;14.48;;;;;;;14.51;28.73;97382.22;5020976;28;20116;-86
2022/03/09 10:38:26;;;;;;;23.52;14.48;;;;;;;14.03;30.05;97381.56;5012082;28;20083;-85
2022/03/09 10:40:55;;;;;;;30.35;18.95;;;;;;;13.06;31.44;97383.66;5030795;28;20400;-85
2022/03/09 10:43:24;;;;;;;25.38;14.32;;;;;;;13.73;31.29;97392.00;5038544;28;20032;-85
2022/03/09 10:46:10;;;;;;;21.67;14.52;;;;;;;14.87;29.43;97390.00;5025881;28;20571;-84
2022/03/09 10:49:02;;;;;;;22.23;14.60;;;;;;;15.74;29.00;97375.53;5026769;28;20034;-84
2022/03/09 10:51:32;;;;;;;;;;;;;;;16.13;28.15;97373.91;5037244;28;20046;-84
2022/03/09 10:54:03;;;;;;;34.33;17.98;;;;;;;16.66;30.63;97380.03;5022342;28;20463;-84
2022/03/09 10:56:29;;;;;;;21.48;14.05;;;;;;;16.30;27.75;97361.66;5033282;28;20521;-86
2022/03/09 10:59:01;;;;;;;21.85;13.02;;;;;;;16.11;27.45;97354.31;5033899;28;20029;-85
2022/03/09 11:01:27;;;;;;;23.13;14.38;;;;;;;15.62;29.32;97360.41;5023249;28;20438;-85
2022/03/09 11:03:52;;;;;;;21.70;13.80;;;;;;;15.63;28.70;97362.94;5019270;28;20036;-85
2022/03/09 11:06:20;;;;;;;22.17;14.82;;;;;;;16.63;27.38;97361.41;5019547;28;20041;-84
2022/03/09 11:08:46;;;;;;;25.30;14.45;;;;;;;16.62;27.25;97360.53;5035841;28;20111;-84
2022/03/09 11:11:14;;;;;;;23.40;13.70;;;;;;;16.02;27.19;97352.44;5000842;28;20048;-85
2022/03/09 11:13:40;;;;;;;23.33;14.18;;;;;;;14.24;28.76;97330.59;5000405;28;20021;-85
2022/03/09 11:16:07;;;;;;;22.70;14.20;;;;;;;12.82;31.58;97343.41;5031054;28;20036;-85
2022/03/09 11:18:33;;;;;;;26.63;16.40;;;;;;;12.29;33.06;97352.66;5052698;28;20048;-85
2022/03/09 11:21:02;;;;;;;23.73;15.15;;;;;;;12.35;31.72;97351.38;5035814;28;20055;-85
2022/03/09 11:23:29;;;;;;;20.88;13.15;;;;;;;12.69;30.64;97344.41;5019418;28;20028;-85
2022/03/09 11:26:11;;;;;;;21.10;12.52;;;;;;;13.95;29.57;97357.97;5018818;28;20029;-85